sensor_id;sensor_type;location;lat;lon;timestamp;pressure;altitude;pressure_sealevel;temperature;humidity
6349;BME280;3207;42.648;23.406;2023-03-26T00:00:21;99700.50;;;9.15;nan
6349;BME280;3207;42.648;23.406;2023-03-26T00:02:47;99689.75;;;9.20;nan
6349;BME280;3207;42.648;23.406;2023-03-26T00:05:14;99682.97;;;9.17;nan
6349;BME280;3207;42.648;23.406;2023-03-26T00:07:43;99689.28;;;9.02;nan
6349;BME280;3207;42.648;23.406;2023-03-26T00:10:10;99694.38;;;8.67;nan
6349;BME280;3207;42.648;23.406;2023-03-26T00:12:37;99707.22;;;8.45;nan
6349;BME280;3207;42.648;23.406;2023-03-26T00:15:04;99712.53;;;8.43;nan
6349;BME280;3207;42.648;23.406;2023-03-26T00:17:34;99718.78;;;8.54;nan
6349;BME280;3207;42.648;23.406;2023-03-26T00:20:01;99749.41;;;8.50;nan
6349;BME280;3207;42.648;23.406;2023-03-26T00:22:29;99756.94;;;8.55;nan
6349;BME280;3207;42.648;23.406;2023-03-26T00:24:57;99776.72;;;8.44;nan
6349;BME280;3207;42.648;23.406;2023-03-26T00:27:25;99781.72;;;8.35;nan
6349;BME280;3207;42.648;23.406;2023-03-26T00:29:53;99790.25;;;8.37;nan
6349;BME280;3207;42.648;23.406;2023-03-26T00:32:21;99784.84;;;8.53;nan
6349;BME280;3207;42.648;23.406;2023-03-26T00:34:52;99778.16;;;8.61;nan
6349;BME280;3207;42.648;23.406;2023-03-26T00:37:20;99774.09;;;8.82;nan
6349;BME280;3207;42.648;23.406;2023-03-26T00:39:51;99770.25;;;8.88;nan
6349;BME280;3207;42.648;23.406;2023-03-26T00:42:19;99768.56;;;9.00;nan
6349;BME280;3207;42.648;23.406;2023-03-26T00:44:46;99762.25;;;9.15;nan
6349;BME280;3207;42.648;23.406;2023-03-26T00:47:15;99755.88;;;9.19;nan
6349;BME280;3207;42.648;23.406;2023-03-26T00:49:42;99750.66;;;9.19;nan
6349;BME280;3207;42.648;23.406;2023-03-26T00:52:11;99745.72;;;9.27;nan
6349;BME280;3207;42.648;23.406;2023-03-26T00:54:39;99736.75;;;9.31;nan
6349;BME280;3207;42.648;23.406;2023-03-26T00:57:06;99735.81;;;9.32;nan
6349;BME280;3207;42.648;23.406;2023-03-26T00:59:36;99747.91;;;8.97;nan
6349;BME280;3207;42.648;23.406;2023-03-26T01:02:03;99726.88;;;8.74;nan
6349;BME280;3207;42.648;23.406;2023-03-26T01:04:32;99721.19;;;9.06;nan
6349;BME280;3207;42.648;23.406;2023-03-26T01:07:02;99718.88;;;8.77;nan
6349;BME280;3207;42.648;23.406;2023-03-26T01:09:33;99720.63;;;8.90;nan
6349;BME280;3207;42.648;23.406;2023-03-26T01:12:03;99670.59;;;8.72;nan
6349;BME280;3207;42.648;23.406;2023-03-26T01:14:31;99690.03;;;8.92;nan
6349;BME280;3207;42.648;23.406;2023-03-26T01:17:00;99693.91;;;8.99;nan
6349;BME280;3207;42.648;23.406;2023-03-26T01:19:30;99677.25;;;8.89;nan
6349;BME280;3207;42.648;23.406;2023-03-26T01:22:03;99660.19;;;8.72;nan
6349;BME280;3207;42.648;23.406;2023-03-26T01:24:31;99671.97;;;9.01;nan
6349;BME280;3207;42.648;23.406;2023-03-26T01:27:16;99659.06;;;9.00;nan
6349;BME280;3207;42.648;23.406;2023-03-26T01:29:52;99672.78;;;9.02;nan
6349;BME280;3207;42.648;23.406;2023-03-26T01:32:41;99674.47;;;9.03;nan
6349;BME280;3207;42.648;23.406;2023-03-26T01:35:19;99664.66;;;9.06;nan
6349;BME280;3207;42.648;23.406;2023-03-26T01:37:56;99665.56;;;9.18;nan
6349;BME280;3207;42.648;23.406;2023-03-26T01:40:28;99679.81;;;9.25;nan
6349;BME280;3207;42.648;23.406;2023-03-26T01:43:10;99692.06;;;9.12;nan
6349;BME280;3207;42.648;23.406;2023-03-26T01:45:40;99681.72;;;8.87;nan
6349;BME280;3207;42.648;23.406;2023-03-26T01:48:08;99687.50;;;8.79;nan
6349;BME280;3207;42.648;23.406;2023-03-26T01:50:35;99682.50;;;8.63;nan
6349;BME280;3207;42.648;23.406;2023-03-26T01:53:02;99694.34;;;8.80;nan
6349;BME280;3207;42.648;23.406;2023-03-26T01:55:35;99687.78;;;8.74;nan
6349;BME280;3207;42.648;23.406;2023-03-26T01:58:11;99698.78;;;8.91;nan
6349;BME280;3207;42.648;23.406;2023-03-26T02:00:41;99706.88;;;8.75;nan
6349;BME280;3207;42.648;23.406;2023-03-26T02:03:22;99704.84;;;8.42;nan
6349;BME280;3207;42.648;23.406;2023-03-26T02:05:54;99696.72;;;8.47;nan
6349;BME280;3207;42.648;23.406;2023-03-26T02:08:26;99700.94;;;8.60;nan
6349;BME280;3207;42.648;23.406;2023-03-26T02:11:02;99685.84;;;8.65;nan
6349;BME280;3207;42.648;23.406;2023-03-26T02:13:35;99688.63;;;8.75;nan
6349;BME280;3207;42.648;23.406;2023-03-26T02:16:04;99681.53;;;8.77;nan
6349;BME280;3207;42.648;23.406;2023-03-26T02:18:31;99689.97;;;8.80;nan
6349;BME280;3207;42.648;23.406;2023-03-26T02:21:05;99689.88;;;8.69;nan
6349;BME280;3207;42.648;23.406;2023-03-26T02:23:34;99683.97;;;8.67;nan
6349;BME280;3207;42.648;23.406;2023-03-26T02:26:04;99674.16;;;8.71;nan
6349;BME280;3207;42.648;23.406;2023-03-26T02:28:32;99684.88;;;8.79;nan
6349;BME280;3207;42.648;23.406;2023-03-26T02:30:58;99679.53;;;8.80;nan
6349;BME280;3207;42.648;23.406;2023-03-26T02:33:27;99677.06;;;8.79;nan
6349;BME280;3207;42.648;23.406;2023-03-26T02:35:55;99672.91;;;8.76;nan
6349;BME280;3207;42.648;23.406;2023-03-26T02:38:24;99665.81;;;8.78;nan
6349;BME280;3207;42.648;23.406;2023-03-26T02:40:51;99656.31;;;8.77;nan
6349;BME280;3207;42.648;23.406;2023-03-26T02:43:20;99646.59;;;8.79;nan
6349;BME280;3207;42.648;23.406;2023-03-26T02:45:47;99652.44;;;8.83;nan
6349;BME280;3207;42.648;23.406;2023-03-26T02:48:14;99656.81;;;8.82;nan
6349;BME280;3207;42.648;23.406;2023-03-26T02:50:41;99648.06;;;8.84;nan
6349;BME280;3207;42.648;23.406;2023-03-26T02:53:08;99653.53;;;8.92;nan
6349;BME280;3207;42.648;23.406;2023-03-26T02:55:36;99641.00;;;8.73;nan
6349;BME280;3207;42.648;23.406;2023-03-26T02:58:03;99655.81;;;8.72;nan
6349;BME280;3207;42.648;23.406;2023-03-26T03:00:32;99666.88;;;8.63;nan
6349;BME280;3207;42.648;23.406;2023-03-26T03:02:59;99663.75;;;8.58;nan
6349;BME280;3207;42.648;23.406;2023-03-26T03:05:29;99657.59;;;8.59;nan
6349;BME280;3207;42.648;23.406;2023-03-26T03:07:56;99665.22;;;8.62;nan
6349;BME280;3207;42.648;23.406;2023-03-26T03:10:23;99672.47;;;8.70;nan
6349;BME280;3207;42.648;23.406;2023-03-26T03:12:50;99672.16;;;8.74;nan
6349;BME280;3207;42.648;23.406;2023-03-26T03:15:17;99671.03;;;8.78;nan
6349;BME280;3207;42.648;23.406;2023-03-26T03:17:45;99668.09;;;8.70;nan
6349;BME280;3207;42.648;23.406;2023-03-26T03:20:12;99663.63;;;8.72;nan
6349;BME280;3207;42.648;23.406;2023-03-26T03:22:40;99666.84;;;8.76;nan
6349;BME280;3207;42.648;23.406;2023-03-26T03:25:08;99659.78;;;8.65;nan
6349;BME280;3207;42.648;23.406;2023-03-26T03:27:39;99667.16;;;8.71;nan
6349;BME280;3207;42.648;23.406;2023-03-26T03:30:08;99671.88;;;8.66;nan
6349;BME280;3207;42.648;23.406;2023-03-26T03:32:35;99665.72;;;8.67;nan
6349;BME280;3207;42.648;23.406;2023-03-26T03:35:04;99671.44;;;8.72;nan
6349;BME280;3207;42.648;23.406;2023-03-26T03:37:31;99674.97;;;8.71;nan
6349;BME280;3207;42.648;23.406;2023-03-26T03:39:58;99680.91;;;8.73;nan
6349;BME280;3207;42.648;23.406;2023-03-26T03:42:25;99678.03;;;8.65;nan
6349;BME280;3207;42.648;23.406;2023-03-26T03:44:52;99683.66;;;8.59;nan
6349;BME280;3207;42.648;23.406;2023-03-26T03:47:19;99686.03;;;8.62;nan
6349;BME280;3207;42.648;23.406;2023-03-26T03:49:47;99690.88;;;8.56;nan
6349;BME280;3207;42.648;23.406;2023-03-26T03:52:16;99690.34;;;8.51;nan
6349;BME280;3207;42.648;23.406;2023-03-26T03:54:43;99701.88;;;8.59;nan
6349;BME280;3207;42.648;23.406;2023-03-26T03:57:10;99708.56;;;8.51;nan
6349;BME280;3207;42.648;23.406;2023-03-26T03:59:38;99700.03;;;8.49;nan
6349;BME280;3207;42.648;23.406;2023-03-26T04:02:05;99707.31;;;8.56;nan
6349;BME280;3207;42.648;23.406;2023-03-26T04:04:32;99685.22;;;8.62;nan
6349;BME280;3207;42.648;23.406;2023-03-26T04:06:58;99688.34;;;8.67;nan
6349;BME280;3207;42.648;23.406;2023-03-26T04:09:27;99676.03;;;8.69;nan
6349;BME280;3207;42.648;23.406;2023-03-26T04:11:53;99674.97;;;8.71;nan
6349;BME280;3207;42.648;23.406;2023-03-26T04:14:20;99661.13;;;8.71;nan
6349;BME280;3207;42.648;23.406;2023-03-26T04:16:47;99664.66;;;8.70;nan
6349;BME280;3207;42.648;23.406;2023-03-26T04:19:14;99661.66;;;8.63;nan
6349;BME280;3207;42.648;23.406;2023-03-26T04:21:41;99674.72;;;8.51;nan
6349;BME280;3207;42.648;23.406;2023-03-26T04:24:08;99668.56;;;8.52;nan
6349;BME280;3207;42.648;23.406;2023-03-26T04:26:36;99677.09;;;8.54;nan
6349;BME280;3207;42.648;23.406;2023-03-26T04:29:05;99679.81;;;8.52;nan
6349;BME280;3207;42.648;23.406;2023-03-26T04:31:36;99688.47;;;8.53;nan
6349;BME280;3207;42.648;23.406;2023-03-26T04:34:06;99693.56;;;8.54;nan
6349;BME280;3207;42.648;23.406;2023-03-26T04:36:38;99696.47;;;8.62;nan
6349;BME280;3207;42.648;23.406;2023-03-26T04:39:10;99683.53;;;8.61;nan
6349;BME280;3207;42.648;23.406;2023-03-26T04:41:39;99692.38;;;8.71;nan
6349;BME280;3207;42.648;23.406;2023-03-26T04:44:06;99692.28;;;8.72;nan
6349;BME280;3207;42.648;23.406;2023-03-26T04:46:32;99689.25;;;8.78;nan
6349;BME280;3207;42.648;23.406;2023-03-26T04:48:59;99684.44;;;8.85;nan
6349;BME280;3207;42.648;23.406;2023-03-26T04:51:32;99673.91;;;8.87;nan
6349;BME280;3207;42.648;23.406;2023-03-26T04:54:03;99676.03;;;9.05;nan
6349;BME280;3207;42.648;23.406;2023-03-26T04:56:39;99679.00;;;9.12;nan
6349;BME280;3207;42.648;23.406;2023-03-26T04:59:09;99682.38;;;9.01;nan
6349;BME280;3207;42.648;23.406;2023-03-26T05:01:39;99688.69;;;8.99;nan
6349;BME280;3207;42.648;23.406;2023-03-26T05:04:06;99686.06;;;8.99;nan
6349;BME280;3207;42.648;23.406;2023-03-26T05:06:33;99684.88;;;9.03;nan
6349;BME280;3207;42.648;23.406;2023-03-26T05:09:02;99678.94;;;9.01;nan
6349;BME280;3207;42.648;23.406;2023-03-26T05:11:29;99673.22;;;9.08;nan
6349;BME280;3207;42.648;23.406;2023-03-26T05:13:57;99680.47;;;9.16;nan
6349;BME280;3207;42.648;23.406;2023-03-26T05:16:24;99667.44;;;9.16;nan
6349;BME280;3207;42.648;23.406;2023-03-26T05:18:51;99676.97;;;9.28;nan
6349;BME280;3207;42.648;23.406;2023-03-26T05:21:18;99669.41;;;9.36;nan
6349;BME280;3207;42.648;23.406;2023-03-26T05:23:45;99670.78;;;9.42;nan
6349;BME280;3207;42.648;23.406;2023-03-26T05:26:12;99676.69;;;9.44;nan
6349;BME280;3207;42.648;23.406;2023-03-26T05:28:39;99672.88;;;9.37;nan
6349;BME280;3207;42.648;23.406;2023-03-26T05:31:07;99678.28;;;9.34;nan
6349;BME280;3207;42.648;23.406;2023-03-26T05:33:35;99675.97;;;9.42;nan
6349;BME280;3207;42.648;23.406;2023-03-26T05:36:04;99675.72;;;9.45;nan
6349;BME280;3207;42.648;23.406;2023-03-26T05:38:31;99685.13;;;9.47;nan
6349;BME280;3207;42.648;23.406;2023-03-26T05:40:59;99676.81;;;9.42;nan
6349;BME280;3207;42.648;23.406;2023-03-26T05:43:27;99692.41;;;9.31;nan
6349;BME280;3207;42.648;23.406;2023-03-26T05:45:54;99685.00;;;9.25;nan
6349;BME280;3207;42.648;23.406;2023-03-26T05:48:22;99686.56;;;9.28;nan
6349;BME280;3207;42.648;23.406;2023-03-26T05:50:51;99675.78;;;9.21;nan
6349;BME280;3207;42.648;23.406;2023-03-26T05:53:19;99679.81;;;9.25;nan
6349;BME280;3207;42.648;23.406;2023-03-26T05:55:47;99666.09;;;9.34;nan
6349;BME280;3207;42.648;23.406;2023-03-26T05:58:15;99667.19;;;9.43;nan
6349;BME280;3207;42.648;23.406;2023-03-26T06:00:42;99666.88;;;9.47;nan
6349;BME280;3207;42.648;23.406;2023-03-26T06:03:13;99661.69;;;9.59;nan
6349;BME280;3207;42.648;23.406;2023-03-26T06:05:42;99654.22;;;9.65;nan
6349;BME280;3207;42.648;23.406;2023-03-26T06:08:09;99647.22;;;9.66;nan
6349;BME280;3207;42.648;23.406;2023-03-26T06:10:36;99629.69;;;9.68;nan
6349;BME280;3207;42.648;23.406;2023-03-26T06:13:03;99632.94;;;9.82;nan
6349;BME280;3207;42.648;23.406;2023-03-26T06:15:30;99645.88;;;9.95;nan
6349;BME280;3207;42.648;23.406;2023-03-26T06:17:57;99633.06;;;10.03;nan
6349;BME280;3207;42.648;23.406;2023-03-26T06:20:24;99640.28;;;10.00;nan
6349;BME280;3207;42.648;23.406;2023-03-26T06:22:52;99633.09;;;10.14;nan
6349;BME280;3207;42.648;23.406;2023-03-26T06:25:19;99627.19;;;10.23;nan
6349;BME280;3207;42.648;23.406;2023-03-26T06:27:46;99638.56;;;10.22;nan
6349;BME280;3207;42.648;23.406;2023-03-26T06:30:14;99624.19;;;10.28;nan
6349;BME280;3207;42.648;23.406;2023-03-26T06:32:41;99625.63;;;10.32;nan
6349;BME280;3207;42.648;23.406;2023-03-26T06:35:08;99635.97;;;10.45;nan
6349;BME280;3207;42.648;23.406;2023-03-26T06:37:35;99643.75;;;10.78;nan
6349;BME280;3207;42.648;23.406;2023-03-26T06:40:05;99640.53;;;10.86;nan
6349;BME280;3207;42.648;23.406;2023-03-26T06:42:32;99640.06;;;10.81;nan
6349;BME280;3207;42.648;23.406;2023-03-26T06:44:58;99635.09;;;10.78;nan
6349;BME280;3207;42.648;23.406;2023-03-26T06:47:25;99641.88;;;10.80;nan
6349;BME280;3207;42.648;23.406;2023-03-26T06:49:52;99641.59;;;10.83;nan
6349;BME280;3207;42.648;23.406;2023-03-26T06:52:19;99637.34;;;10.71;nan
6349;BME280;3207;42.648;23.406;2023-03-26T06:54:46;99643.81;;;10.34;nan
6349;BME280;3207;42.648;23.406;2023-03-26T06:57:14;99634.91;;;11.02;nan
6349;BME280;3207;42.648;23.406;2023-03-26T06:59:41;99635.13;;;11.62;nan
6349;BME280;3207;42.648;23.406;2023-03-26T07:02:08;99632.78;;;12.01;nan
6349;BME280;3207;42.648;23.406;2023-03-26T07:04:36;99634.09;;;12.16;nan
6349;BME280;3207;42.648;23.406;2023-03-26T07:07:03;99634.09;;;12.16;nan
6349;BME280;3207;42.648;23.406;2023-03-26T07:09:30;99630.78;;;12.14;nan
6349;BME280;3207;42.648;23.406;2023-03-26T07:11:57;99647.00;;;12.08;nan
6349;BME280;3207;42.648;23.406;2023-03-26T07:14:25;99649.53;;;12.19;nan
6349;BME280;3207;42.648;23.406;2023-03-26T07:16:56;99628.88;;;12.16;nan
6349;BME280;3207;42.648;23.406;2023-03-26T07:19:23;99631.03;;;12.11;nan
6349;BME280;3207;42.648;23.406;2023-03-26T07:21:51;99643.72;;;12.06;nan
6349;BME280;3207;42.648;23.406;2023-03-26T07:24:18;99634.25;;;11.94;nan
6349;BME280;3207;42.648;23.406;2023-03-26T07:26:52;99630.94;;;11.92;nan
6349;BME280;3207;42.648;23.406;2023-03-26T07:29:30;99648.13;;;12.05;nan
6349;BME280;3207;42.648;23.406;2023-03-26T07:32:05;99647.00;;;12.08;nan
6349;BME280;3207;42.648;23.406;2023-03-26T07:34:45;99638.09;;;12.20;nan
6349;BME280;3207;42.648;23.406;2023-03-26T07:37:23;99646.63;;;12.43;nan
6349;BME280;3207;42.648;23.406;2023-03-26T07:39:58;99636.50;;;12.59;nan
6349;BME280;3207;42.648;23.406;2023-03-26T07:42:37;99645.63;;;12.74;nan
6349;BME280;3207;42.648;23.406;2023-03-26T07:45:16;99643.19;;;12.92;nan
6349;BME280;3207;42.648;23.406;2023-03-26T07:47:46;99646.53;;;13.13;nan
6349;BME280;3207;42.648;23.406;2023-03-26T07:50:14;99632.63;;;13.32;nan
6349;BME280;3207;42.648;23.406;2023-03-26T07:52:42;99633.84;;;13.57;nan
6349;BME280;3207;42.648;23.406;2023-03-26T07:55:12;99628.56;;;13.86;nan
6349;BME280;3207;42.648;23.406;2023-03-26T07:57:47;99626.25;;;14.10;nan
6349;BME280;3207;42.648;23.406;2023-03-26T08:00:20;99621.19;;;14.36;nan
6349;BME280;3207;42.648;23.406;2023-03-26T08:03:16;99582.53;;;14.19;nan
6349;BME280;3207;42.648;23.406;2023-03-26T08:05:49;99616.53;;;14.30;nan
6349;BME280;3207;42.648;23.406;2023-03-26T08:08:22;99609.38;;;14.13;nan
6349;BME280;3207;42.648;23.406;2023-03-26T08:11:06;99607.25;;;13.79;nan
6349;BME280;3207;42.648;23.406;2023-03-26T08:13:46;99608.53;;;13.75;nan
6349;BME280;3207;42.648;23.406;2023-03-26T08:16:24;99599.69;;;13.76;nan
6349;BME280;3207;42.648;23.406;2023-03-26T08:19:00;99596.75;;;13.79;nan
6349;BME280;3207;42.648;23.406;2023-03-26T08:21:31;99589.28;;;13.84;nan
6349;BME280;3207;42.648;23.406;2023-03-26T08:24:02;99576.25;;;13.92;nan
6349;BME280;3207;42.648;23.406;2023-03-26T08:26:37;99574.88;;;13.98;nan
6349;BME280;3207;42.648;23.406;2023-03-26T08:29:14;99551.59;;;14.03;nan
6349;BME280;3207;42.648;23.406;2023-03-26T08:31:47;99555.47;;;14.09;nan
6349;BME280;3207;42.648;23.406;2023-03-26T08:34:14;99549.84;;;14.21;nan
6349;BME280;3207;42.648;23.406;2023-03-26T08:36:41;99538.59;;;14.02;nan
6349;BME280;3207;42.648;23.406;2023-03-26T08:39:08;99544.50;;;14.50;nan
6349;BME280;3207;42.648;23.406;2023-03-26T08:51:18;99535.56;;;15.58;nan
6349;BME280;3207;42.648;23.406;2023-03-26T08:54:32;99532.63;;;15.61;nan
6349;BME280;3207;42.648;23.406;2023-03-26T08:57:19;99530.09;;;15.77;nan
6349;BME280;3207;42.648;23.406;2023-03-26T09:03:16;99526.25;;;15.97;nan
6349;BME280;3207;42.648;23.406;2023-03-26T09:06:02;99515.19;;;15.68;nan
6349;BME280;3207;42.648;23.406;2023-03-26T09:08:49;99509.00;;;15.77;nan
6349;BME280;3207;42.648;23.406;2023-03-26T09:11:42;99510.66;;;15.78;nan
6349;BME280;3207;42.648;23.406;2023-03-26T09:14:42;99519.75;;;16.26;nan
6349;BME280;3207;42.648;23.406;2023-03-26T09:17:41;99508.50;;;16.16;nan
6349;BME280;3207;42.648;23.406;2023-03-26T09:20:42;99507.41;;;16.93;nan
6349;BME280;3207;42.648;23.406;2023-03-26T09:26:27;99503.97;;;17.88;nan
6349;BME280;3207;42.648;23.406;2023-03-26T09:32:12;99502.97;;;19.42;nan
6349;BME280;3207;42.648;23.406;2023-03-26T09:35:10;99499.53;;;20.44;nan
6349;BME280;3207;42.648;23.406;2023-03-26T09:37:50;99493.59;;;21.28;nan
6349;BME280;3207;42.648;23.406;2023-03-26T09:40:22;99483.03;;;21.75;nan
6349;BME280;3207;42.648;23.406;2023-03-26T09:42:54;99485.41;;;21.91;nan
6349;BME280;3207;42.648;23.406;2023-03-26T09:45:43;99483.25;;;22.15;nan
6349;BME280;3207;42.648;23.406;2023-03-26T09:48:28;99482.97;;;22.44;nan
6349;BME280;3207;42.648;23.406;2023-03-26T09:51:22;99477.50;;;22.66;nan
6349;BME280;3207;42.648;23.406;2023-03-26T09:54:04;99473.97;;;22.45;nan
6349;BME280;3207;42.648;23.406;2023-03-26T09:56:43;99468.41;;;22.40;nan
6349;BME280;3207;42.648;23.406;2023-03-26T09:59:36;99458.47;;;22.82;nan
6349;BME280;3207;42.648;23.406;2023-03-26T10:02:19;99455.38;;;23.11;nan
6349;BME280;3207;42.648;23.406;2023-03-26T10:05:19;99445.94;;;23.22;nan
6349;BME280;3207;42.648;23.406;2023-03-26T10:08:00;99438.13;;;23.33;nan
6349;BME280;3207;42.648;23.406;2023-03-26T10:10:38;99436.78;;;23.89;nan
6349;BME280;3207;42.648;23.406;2023-03-26T10:13:18;99434.97;;;24.59;nan
6349;BME280;3207;42.648;23.406;2023-03-26T10:15:57;99424.13;;;25.10;nan
6349;BME280;3207;42.648;23.406;2023-03-26T10:18:34;99417.69;;;26.69;nan
6349;BME280;3207;42.648;23.406;2023-03-26T10:21:08;99408.16;;;28.06;nan
6349;BME280;3207;42.648;23.406;2023-03-26T10:23:52;99407.63;;;30.20;nan
6349;BME280;3207;42.648;23.406;2023-03-26T10:26:45;99403.59;;;31.55;nan
6349;BME280;3207;42.648;23.406;2023-03-26T10:29:26;99396.03;;;33.26;nan
6349;BME280;3207;42.648;23.406;2023-03-26T10:32:04;99389.06;;;34.97;nan
6349;BME280;3207;42.648;23.406;2023-03-26T10:34:47;99390.13;;;36.52;nan
6349;BME280;3207;42.648;23.406;2023-03-26T10:37:22;99394.38;;;37.64;nan
6349;BME280;3207;42.648;23.406;2023-03-26T10:40:19;99383.75;;;37.77;nan
6349;BME280;3207;42.648;23.406;2023-03-26T10:43:13;99373.88;;;38.03;nan
6349;BME280;3207;42.648;23.406;2023-03-26T10:49:15;99361.63;;;37.37;nan
6349;BME280;3207;42.648;23.406;2023-03-26T10:51:47;99362.47;;;35.46;nan
6349;BME280;3207;42.648;23.406;2023-03-26T10:54:38;99358.38;;;34.96;nan
6349;BME280;3207;42.648;23.406;2023-03-26T10:57:14;99357.75;;;34.75;nan
6349;BME280;3207;42.648;23.406;2023-03-26T10:59:44;99353.47;;;35.27;nan
6349;BME280;3207;42.648;23.406;2023-03-26T11:02:23;99356.81;;;35.62;nan
6349;BME280;3207;42.648;23.406;2023-03-26T11:04:56;99354.03;;;35.19;nan
6349;BME280;3207;42.648;23.406;2023-03-26T11:07:31;99334.78;;;33.85;nan
6349;BME280;3207;42.648;23.406;2023-03-26T11:10:06;99346.59;;;33.50;nan
6349;BME280;3207;42.648;23.406;2023-03-26T11:12:39;99335.34;;;33.07;nan
6349;BME280;3207;42.648;23.406;2023-03-26T11:15:18;99328.88;;;32.17;nan
6349;BME280;3207;42.648;23.406;2023-03-26T11:17:56;99326.22;;;32.52;nan
6349;BME280;3207;42.648;23.406;2023-03-26T11:20:32;99321.84;;;32.92;nan
6349;BME280;3207;42.648;23.406;2023-03-26T11:23:14;99318.53;;;33.15;nan
6349;BME280;3207;42.648;23.406;2023-03-26T11:25:54;99311.44;;;33.34;nan
6349;BME280;3207;42.648;23.406;2023-03-26T11:28:46;99309.13;;;32.82;nan
6349;BME280;3207;42.648;23.406;2023-03-26T11:31:23;99305.50;;;33.17;nan
6349;BME280;3207;42.648;23.406;2023-03-26T11:33:54;99298.56;;;33.60;nan
6349;BME280;3207;42.648;23.406;2023-03-26T11:36:27;99295.66;;;33.96;nan
6349;BME280;3207;42.648;23.406;2023-03-26T11:38:58;99283.09;;;33.61;nan
6349;BME280;3207;42.648;23.406;2023-03-26T11:41:26;99273.88;;;33.62;nan
6349;BME280;3207;42.648;23.406;2023-03-26T11:43:58;99269.56;;;32.91;nan
6349;BME280;3207;42.648;23.406;2023-03-26T11:46:29;99272.00;;;32.88;nan
6349;BME280;3207;42.648;23.406;2023-03-26T11:48:58;99254.16;;;32.66;nan
6349;BME280;3207;42.648;23.406;2023-03-26T11:51:29;99249.34;;;32.43;nan
6349;BME280;3207;42.648;23.406;2023-03-26T11:53:57;99245.19;;;31.44;nan
6349;BME280;3207;42.648;23.406;2023-03-26T11:56:26;99230.00;;;29.97;nan
6349;BME280;3207;42.648;23.406;2023-03-26T11:58:57;99211.63;;;28.74;nan
6349;BME280;3207;42.648;23.406;2023-03-26T12:01:40;99208.03;;;27.97;nan
6349;BME280;3207;42.648;23.406;2023-03-26T12:04:09;99201.84;;;27.51;nan
6349;BME280;3207;42.648;23.406;2023-03-26T12:06:38;99199.84;;;27.30;nan
6349;BME280;3207;42.648;23.406;2023-03-26T12:09:14;99187.00;;;26.92;nan
6349;BME280;3207;42.648;23.406;2023-03-26T12:11:42;99188.69;;;26.58;nan
6349;BME280;3207;42.648;23.406;2023-03-26T12:14:15;99179.97;;;26.28;nan
6349;BME280;3207;42.648;23.406;2023-03-26T12:17:01;99177.59;;;26.19;nan
6349;BME280;3207;42.648;23.406;2023-03-26T12:19:35;99167.47;;;25.98;nan
6349;BME280;3207;42.648;23.406;2023-03-26T12:22:04;99160.56;;;25.79;nan
6349;BME280;3207;42.648;23.406;2023-03-26T12:24:32;99152.34;;;25.50;nan
6349;BME280;3207;42.648;23.406;2023-03-26T12:27:01;99154.22;;;25.20;nan
6349;BME280;3207;42.648;23.406;2023-03-26T12:29:33;99148.72;;;25.15;nan
6349;BME280;3207;42.648;23.406;2023-03-26T12:32:06;99143.25;;;25.10;nan
6349;BME280;3207;42.648;23.406;2023-03-26T12:34:38;99130.34;;;25.07;nan
6349;BME280;3207;42.648;23.406;2023-03-26T12:37:07;99135.63;;;24.95;nan
6349;BME280;3207;42.648;23.406;2023-03-26T12:39:36;99133.44;;;25.04;nan
6349;BME280;3207;42.648;23.406;2023-03-26T12:42:04;99111.84;;;24.87;nan
6349;BME280;3207;42.648;23.406;2023-03-26T12:44:43;99120.50;;;25.19;nan
6349;BME280;3207;42.648;23.406;2023-03-26T12:47:18;99106.56;;;25.29;nan
6349;BME280;3207;42.648;23.406;2023-03-26T12:49:47;99104.22;;;25.21;nan
6349;BME280;3207;42.648;23.406;2023-03-26T12:52:26;99100.03;;;24.95;nan
6349;BME280;3207;42.648;23.406;2023-03-26T12:54:58;99096.34;;;24.96;nan
6349;BME280;3207;42.648;23.406;2023-03-26T12:57:33;99083.84;;;24.41;nan
6349;BME280;3207;42.648;23.406;2023-03-26T13:00:17;99089.38;;;24.58;nan
6349;BME280;3207;42.648;23.406;2023-03-26T13:03:07;99075.81;;;23.80;nan
6349;BME280;3207;42.648;23.406;2023-03-26T13:05:53;99073.06;;;23.87;nan
6349;BME280;3207;42.648;23.406;2023-03-26T13:08:42;99070.59;;;23.67;nan
6349;BME280;3207;42.648;23.406;2023-03-26T13:11:21;99064.06;;;23.63;nan
6349;BME280;3207;42.648;23.406;2023-03-26T13:14:00;99061.47;;;23.56;nan
6349;BME280;3207;42.648;23.406;2023-03-26T13:16:40;99052.09;;;23.72;nan
6349;BME280;3207;42.648;23.406;2023-03-26T13:19:15;99037.19;;;23.83;nan
6349;BME280;3207;42.648;23.406;2023-03-26T13:22:01;99029.13;;;24.07;nan
6349;BME280;3207;42.648;23.406;2023-03-26T13:24:38;99023.13;;;24.30;nan
6349;BME280;3207;42.648;23.406;2023-03-26T13:27:19;99013.69;;;24.28;nan
6349;BME280;3207;42.648;23.406;2023-03-26T13:29:53;99012.88;;;24.27;nan
6349;BME280;3207;42.648;23.406;2023-03-26T13:32:28;99001.75;;;24.30;nan
6349;BME280;3207;42.648;23.406;2023-03-26T13:35:12;98997.66;;;24.09;nan
6349;BME280;3207;42.648;23.406;2023-03-26T13:37:45;98990.53;;;23.85;nan
6349;BME280;3207;42.648;23.406;2023-03-26T13:40:23;98991.22;;;23.81;nan
6349;BME280;3207;42.648;23.406;2023-03-26T13:43:14;98976.75;;;24.06;nan
6349;BME280;3207;42.648;23.406;2023-03-26T13:45:53;98970.41;;;24.26;nan
6349;BME280;3207;42.648;23.406;2023-03-26T13:48:25;98959.63;;;24.32;nan
6349;BME280;3207;42.648;23.406;2023-03-26T13:51:02;98942.59;;;24.45;nan
6349;BME280;3207;42.648;23.406;2023-03-26T13:53:35;98947.16;;;24.56;nan
6349;BME280;3207;42.648;23.406;2023-03-26T13:56:05;98927.41;;;24.57;nan
6349;BME280;3207;42.648;23.406;2023-03-26T13:58:37;98917.59;;;24.21;nan
6349;BME280;3207;42.648;23.406;2023-03-26T14:01:09;98921.84;;;24.29;nan
6349;BME280;3207;42.648;23.406;2023-03-26T14:03:49;98919.09;;;24.17;nan
6349;BME280;3207;42.648;23.406;2023-03-26T14:06:29;98923.03;;;24.15;nan
6349;BME280;3207;42.648;23.406;2023-03-26T14:09:02;98918.47;;;23.85;nan
6349;BME280;3207;42.648;23.406;2023-03-26T14:11:39;98914.19;;;23.66;nan
6349;BME280;3207;42.648;23.406;2023-03-26T14:14:12;98900.72;;;23.61;nan
6349;BME280;3207;42.648;23.406;2023-03-26T14:16:45;98906.25;;;23.78;nan
6349;BME280;3207;42.648;23.406;2023-03-26T14:19:30;98894.22;;;23.87;nan
6349;BME280;3207;42.648;23.406;2023-03-26T14:22:12;98890.91;;;23.55;nan
6349;BME280;3207;42.648;23.406;2023-03-26T14:24:53;98897.28;;;23.54;nan
6349;BME280;3207;42.648;23.406;2023-03-26T14:27:47;98894.50;;;23.42;nan
6349;BME280;3207;42.648;23.406;2023-03-26T14:30:55;98880.63;;;23.15;nan